createdAt,value
2023-04-11T00:01:49.918Z,97157.00
2023-04-11T00:04:20.854Z,97137.00
2023-04-11T00:06:49.519Z,97151.00
2023-04-11T00:09:17.906Z,97162.00
2023-04-11T00:11:46.148Z,97165.00
2023-04-11T00:14:15.696Z,97170.00
2023-04-11T00:16:43.973Z,97167.00
2023-04-11T00:19:12.255Z,97174.00
2023-04-11T00:21:40.531Z,97182.00
2023-04-11T00:24:09.766Z,97162.00
2023-04-11T00:26:37.964Z,97157.00
2023-04-11T00:29:06.175Z,97157.00
2023-04-11T00:31:36.041Z,97148.00
2023-04-11T00:34:04.430Z,97141.00
2023-04-11T00:36:32.802Z,97130.00
2023-04-11T00:39:02.258Z,97132.00
2023-04-11T00:41:30.648Z,97121.00
2023-04-11T00:43:58.858Z,97110.00
2023-04-11T00:46:27.903Z,97115.00
2023-04-11T00:48:58.051Z,97088.00
2023-04-11T00:51:28.559Z,97099.00
2023-04-11T00:53:57.024Z,97108.00
2023-04-11T00:56:27.193Z,97095.00
2023-04-11T00:58:56.379Z,97081.00
2023-04-11T01:01:25.507Z,97067.00
2023-04-11T01:03:54.044Z,97079.00
2023-04-11T01:06:24.962Z,97081.00
2023-04-11T01:08:53.724Z,97102.00
2023-04-11T01:11:22.298Z,97080.00
2023-04-11T01:13:52.514Z,97077.00
2023-04-11T01:16:21.714Z,97092.00
2023-04-11T01:18:50.603Z,97093.00
2023-04-11T01:21:20.830Z,97083.00
2023-04-11T01:23:52.781Z,97086.00
2023-04-11T01:26:21.303Z,97075.00
2023-04-11T01:28:49.835Z,97077.00
2023-04-11T01:31:18.653Z,97066.00
2023-04-11T01:33:46.938Z,97087.00
2023-04-11T01:36:15.198Z,97088.00
2023-04-11T01:38:43.442Z,97081.00
2023-04-11T01:41:14.166Z,97094.00
2023-04-11T01:43:42.619Z,97083.00
2023-04-11T01:46:12.933Z,97072.00
2023-04-11T01:48:41.973Z,97066.00
2023-04-11T01:51:10.629Z,97077.00
2023-04-11T01:53:38.903Z,97077.00
2023-04-11T01:56:09.318Z,97064.00
2023-04-11T01:58:38.912Z,97068.00
2023-04-11T02:01:07.760Z,97063.00
2023-04-11T02:03:36.937Z,97054.00
2023-04-11T02:06:06.499Z,97055.00
2023-04-11T02:08:34.741Z,97049.00
2023-04-11T02:11:02.993Z,97051.00
2023-04-11T02:13:31.314Z,97067.00
2023-04-11T02:16:08.915Z,97062.00
2023-04-11T02:18:38.588Z,97062.00
2023-04-11T02:21:07.984Z,97059.00
2023-04-11T02:23:36.237Z,97060.00
2023-04-11T02:26:05.811Z,97066.00
2023-04-11T02:28:34.104Z,97055.00
2023-04-11T02:31:04.537Z,97060.00
2023-04-11T02:33:34.194Z,97034.00
2023-04-11T02:36:02.452Z,97045.00
2023-04-11T02:38:30.969Z,97042.00
2023-04-11T02:41:00.523Z,97029.00
2023-04-11T02:43:28.749Z,97029.00
2023-04-11T02:46:09.608Z,97032.00
2023-04-11T02:48:41.679Z,97027.00
2023-04-11T02:51:10.298Z,97030.00
2023-04-11T02:53:38.509Z,97022.00
2023-04-11T02:56:08.329Z,97025.00
2023-04-11T02:58:38.983Z,97014.00
2023-04-11T03:01:11.735Z,97002.00
2023-04-11T03:03:41.477Z,97006.00
2023-04-11T03:06:11.117Z,97014.00
2023-04-11T03:08:41.021Z,97009.00
2023-04-11T03:11:09.471Z,96997.00
2023-04-11T03:13:39.288Z,96986.00
2023-04-11T03:16:09.138Z,96988.00
2023-04-11T03:18:37.294Z,96993.00
2023-04-11T03:21:11.578Z,96991.00
2023-04-11T03:23:44.264Z,96990.00
2023-04-11T03:26:15.380Z,96991.00
2023-04-11T03:28:45.102Z,97010.00
2023-04-11T03:31:17.821Z,96989.00
2023-04-11T03:33:47.054Z,96988.00
2023-04-11T03:36:16.801Z,96980.00
2023-04-11T03:38:45.207Z,97001.00
2023-04-11T03:41:13.455Z,97006.00
2023-04-11T03:43:41.837Z,97016.00
2023-04-11T03:46:11.169Z,97013.00
2023-04-11T03:48:44.073Z,97010.00
2023-04-11T03:51:12.344Z,97008.00
2023-04-11T03:53:57.578Z,97011.00
2023-04-11T03:56:30.817Z,97002.00
2023-04-11T03:58:59.138Z,97016.00
2023-04-11T04:01:32.537Z,97014.00
2023-04-11T04:04:05.164Z,97023.00
2023-04-11T04:06:37.099Z,97033.00
2023-04-11T04:09:07.338Z,97022.00
2023-04-11T04:11:47.383Z,97011.00
2023-04-11T04:14:16.353Z,97010.00
2023-04-11T04:16:44.604Z,97011.00
2023-04-11T04:19:14.741Z,97005.00
2023-04-11T04:21:46.647Z,97012.00
2023-04-11T04:24:18.678Z,97013.00
2023-04-11T04:27:00.863Z,97013.00
2023-04-11T04:29:52.962Z,97000.00
2023-04-11T04:32:37.473Z,97002.00
2023-04-11T04:35:14.120Z,96999.00
2023-04-11T04:37:45.699Z,96999.00
2023-04-11T04:40:40.102Z,96997.00
2023-04-11T04:43:11.594Z,97006.00
2023-04-11T04:45:47.454Z,96988.00
2023-04-11T04:48:20.935Z,96973.00
2023-04-11T04:50:49.089Z,96989.00
2023-04-11T04:53:17.792Z,97011.00
2023-04-11T04:55:51.805Z,97018.00
2023-04-11T04:58:21.558Z,97023.00
2023-04-11T05:00:55.895Z,97039.00
2023-04-11T05:03:27.521Z,97026.00
2023-04-11T05:05:56.760Z,97021.00
2023-04-11T05:08:26.110Z,97025.00
2023-04-11T05:10:58.738Z,97025.00
2023-04-11T05:13:27.246Z,97024.00
2023-04-11T05:15:55.385Z,97034.00
2023-04-11T05:18:29.324Z,97028.00
2023-04-11T05:20:58.034Z,97030.00
2023-04-11T05:23:31.830Z,97042.00
2023-04-11T05:26:04.889Z,97052.00
2023-04-11T05:28:35.210Z,97060.00
2023-04-11T05:31:08.443Z,97062.00
2023-04-11T05:33:38.442Z,97053.00
2023-04-11T05:36:08.295Z,97063.00
2023-04-11T05:38:36.821Z,97070.00
2023-04-11T05:41:07.232Z,97089.00
2023-04-11T05:43:36.407Z,97108.00
2023-04-11T05:46:05.508Z,97095.00
2023-04-11T05:48:33.704Z,97093.00
2023-04-11T05:51:02.080Z,97103.00
2023-04-11T05:53:30.493Z,97092.00
2023-04-11T05:55:58.839Z,97112.00
2023-04-11T05:58:29.691Z,97099.00
2023-04-11T06:00:59.434Z,97118.00
2023-04-11T06:03:28.145Z,97122.00
2023-04-11T06:05:56.612Z,97109.00
2023-04-11T06:08:24.796Z,97115.00
2023-04-11T06:10:52.968Z,97119.00
2023-04-11T06:13:21.233Z,97122.00
2023-04-11T06:15:51.027Z,97124.00
2023-04-11T06:18:19.233Z,97148.00
2023-04-11T06:20:48.818Z,97142.00
2023-04-11T06:23:17.119Z,97132.00
2023-04-11T06:25:45.315Z,97148.00
2023-04-11T06:28:13.484Z,97148.00
2023-04-11T06:30:42.498Z,97167.00
2023-04-11T06:33:12.267Z,97170.00
2023-04-11T06:35:40.834Z,97158.00
2023-04-11T06:38:09.039Z,97158.00
2023-04-11T06:40:37.476Z,97145.00
2023-04-11T06:43:07.004Z,97159.00
2023-04-11T06:45:35.214Z,97168.00
2023-04-11T06:48:03.444Z,97169.00
2023-04-11T06:50:33.077Z,97183.00
2023-04-11T06:53:01.392Z,97182.00
2023-04-11T06:55:29.584Z,97183.00
2023-04-11T06:57:57.819Z,97183.00
2023-04-11T07:00:26.386Z,97182.00
2023-04-11T07:02:54.930Z,97185.00
2023-04-11T07:05:23.310Z,97178.00
2023-04-11T07:07:54.267Z,97195.00
2023-04-11T07:10:22.756Z,97187.00
2023-04-11T07:12:51.134Z,97183.00
2023-04-11T07:15:19.796Z,97169.00
2023-04-11T07:17:51.415Z,97162.00
2023-04-11T07:20:21.184Z,97161.00
2023-04-11T07:22:49.398Z,97194.00
2023-04-11T07:25:22.445Z,97193.00
2023-04-11T07:27:51.521Z,97193.00
2023-04-11T07:30:19.957Z,97192.00
2023-04-11T07:32:48.179Z,97209.00
2023-04-11T07:35:16.895Z,97205.00
2023-04-11T07:37:45.542Z,97211.00
2023-04-11T07:40:14.522Z,97208.00
2023-04-11T07:42:46.120Z,97202.00
2023-04-11T07:45:14.449Z,97210.00
2023-04-11T07:47:42.737Z,97207.00
2023-04-11T07:50:13.774Z,97203.00
2023-04-11T07:52:42.003Z,97193.00
2023-04-11T07:55:11.600Z,97205.00
2023-04-11T07:57:39.910Z,97204.00
2023-04-11T08:00:20.572Z,97189.00
2023-04-11T08:02:48.858Z,97210.00
2023-04-11T08:05:17.257Z,97203.00
2023-04-11T08:07:45.405Z,97217.00
2023-04-11T08:10:13.636Z,97222.00
2023-04-11T08:12:41.828Z,97219.00
2023-04-11T08:15:12.330Z,97221.00
2023-04-11T08:17:41.251Z,97220.00
2023-04-11T08:20:12.023Z,97226.00
2023-04-11T08:22:41.632Z,97229.00
2023-04-11T08:25:12.215Z,97232.00
2023-04-11T08:27:40.983Z,97244.00
2023-04-11T08:30:12.077Z,97240.00
2023-04-11T08:32:40.927Z,97247.00
2023-04-11T08:35:10.973Z,97231.00
2023-04-11T08:37:39.311Z,97229.00
2023-04-11T08:40:10.139Z,97230.00
2023-04-11T08:42:38.399Z,97227.00
2023-04-11T08:45:10.188Z,97222.00
2023-04-11T08:47:39.843Z,97226.00
2023-04-11T08:50:10.019Z,97227.00
2023-04-11T08:52:42.456Z,97243.00
2023-04-11T08:55:11.800Z,97221.00
2023-04-11T08:57:40.071Z,97230.00
2023-04-11T09:00:14.013Z,97237.00
2023-04-11T09:02:59.754Z,97246.00
2023-04-11T09:05:30.644Z,97228.00
2023-04-11T09:08:00.758Z,97236.00
2023-04-11T09:10:29.443Z,97230.00
2023-04-11T09:12:58.270Z,97235.00
2023-04-11T09:15:29.295Z,97224.00
2023-04-11T09:18:00.820Z,97210.00
2023-04-11T09:20:31.122Z,97218.00
2023-04-11T09:23:00.066Z,97224.00
2023-04-11T09:25:29.140Z,97212.00
2023-04-11T09:28:09.940Z,97223.00
2023-04-11T09:30:38.196Z,97214.00
2023-04-11T09:33:23.345Z,97202.00
2023-04-11T09:35:54.257Z,97202.00
2023-04-11T09:38:40.498Z,97191.00
2023-04-11T09:41:08.844Z,97200.00
2023-04-11T09:43:51.538Z,97203.00
2023-04-11T09:46:21.962Z,97225.00
2023-04-11T09:48:54.628Z,97240.00
2023-04-11T09:53:55.762Z,97246.00
2023-04-11T09:56:26.617Z,97233.00
2023-04-11T09:58:58.252Z,97234.00
2023-04-11T10:01:27.314Z,97249.00
2023-04-11T10:03:58.358Z,97248.00
2023-04-11T10:06:34.782Z,97224.00
2023-04-11T10:09:09.470Z,97239.00
2023-04-11T10:11:38.052Z,97241.00
2023-04-11T10:14:06.310Z,97229.00
2023-04-11T10:16:34.752Z,97236.00
2023-04-11T10:19:27.199Z,97220.00
2023-04-11T10:21:55.947Z,97215.00
2023-04-11T10:24:26.577Z,97218.00
2023-04-11T10:26:57.657Z,97220.00
2023-04-11T10:29:51.738Z,97220.00
2023-04-11T10:32:26.560Z,97219.00
2023-04-11T10:35:33.028Z,97223.00
2023-04-11T10:38:01.199Z,97223.00
2023-04-11T10:40:29.456Z,97217.00
2023-04-11T10:42:58.150Z,97239.00
2023-04-11T10:45:28.416Z,97234.00
2023-04-11T10:48:12.848Z,97235.00
2023-04-11T10:50:44.590Z,97230.00
2023-04-11T10:53:40.266Z,97225.00
2023-04-11T10:56:09.093Z,97232.00
2023-04-11T10:58:40.798Z,97203.00
2023-04-11T11:01:26.633Z,97215.00
2023-04-11T11:04:06.918Z,97220.00
2023-04-11T11:06:46.771Z,97226.00
2023-04-11T11:09:24.004Z,97228.00
2023-04-11T11:12:07.559Z,97230.00
2023-04-11T11:14:35.745Z,97230.00
2023-04-11T11:17:04.907Z,97228.00
2023-04-11T11:19:33.487Z,97233.00
2023-04-11T11:22:04.153Z,97231.00
2023-04-11T11:24:32.688Z,97237.00
2023-04-11T11:27:01.042Z,97245.00
2023-04-11T11:29:35.659Z,97222.00
2023-04-11T11:32:04.903Z,97225.00
2023-04-11T11:34:36.045Z,97241.00
2023-04-11T11:37:05.801Z,97231.00
2023-04-11T11:39:35.594Z,97222.00
2023-04-11T11:42:04.442Z,97225.00
2023-04-11T11:44:33.617Z,97240.00
2023-04-11T11:47:03.126Z,97229.00
2023-04-11T11:49:46.312Z,97214.00
2023-04-11T11:52:33.769Z,97229.00
2023-04-11T11:55:02.777Z,97244.00
2023-04-11T11:57:31.139Z,97243.00
2023-04-11T12:00:03.954Z,97241.00
2023-04-11T12:02:36.990Z,97236.00
2023-04-11T12:05:07.908Z,97240.00
2023-04-11T12:07:39.564Z,97238.00
2023-04-11T12:10:11.898Z,97259.00
2023-04-11T12:12:42.848Z,97286.00
2023-04-11T12:15:13.301Z,97254.00
2023-04-11T12:17:42.251Z,97262.00
2023-04-11T12:20:11.825Z,97265.00
2023-04-11T12:22:41.440Z,97269.00
2023-04-11T12:25:13.038Z,97257.00
2023-04-11T12:27:43.561Z,97264.00
2023-04-11T12:30:15.599Z,97254.00
2023-04-11T12:32:44.930Z,97252.00
2023-04-11T12:35:14.269Z,97255.00
2023-04-11T12:37:43.885Z,97257.00
2023-04-11T12:40:12.934Z,97262.00
2023-04-11T12:42:55.136Z,97257.00
2023-04-11T12:45:24.626Z,97262.00
2023-04-11T12:47:53.218Z,97272.00
2023-04-11T12:50:23.293Z,97314.00
2023-04-11T12:52:55.573Z,97352.00
2023-04-11T12:55:24.752Z,97333.00
2023-04-11T12:57:53.038Z,97337.00
2023-04-11T13:00:21.784Z,97325.00
2023-04-11T13:02:50.133Z,97306.00
2023-04-11T13:05:18.871Z,97312.00
2023-04-11T13:07:47.493Z,97314.00
2023-04-11T13:10:17.588Z,97313.00
2023-04-11T13:12:46.417Z,97301.00
2023-04-11T13:15:16.625Z,97300.00
2023-04-11T13:17:45.530Z,97314.00
2023-04-11T13:20:14.310Z,97308.00
2023-04-11T13:22:44.213Z,97292.00
2023-04-11T13:25:13.069Z,97296.00
2023-04-11T13:27:43.220Z,97287.00
2023-04-11T13:30:12.800Z,97282.00
2023-04-11T13:32:41.126Z,97283.00
2023-04-11T13:35:10.502Z,97274.00
2023-04-11T13:37:38.719Z,97295.00
2023-04-11T13:40:11.171Z,97301.00
2023-04-11T13:42:39.866Z,97291.00
2023-04-11T13:45:10.883Z,97302.00
2023-04-11T13:47:39.268Z,97289.00
2023-04-11T13:50:10.067Z,97287.00
2023-04-11T13:52:38.514Z,97285.00
2023-04-11T13:55:07.924Z,97293.00
2023-04-11T13:57:36.226Z,97289.00
2023-04-11T14:00:11.857Z,97293.00
2023-04-11T14:02:42.820Z,97309.00
2023-04-11T14:05:11.755Z,97316.00
2023-04-11T14:07:40.023Z,97313.00
2023-04-11T14:10:09.521Z,97309.00
2023-04-11T14:12:37.810Z,97304.00
2023-04-11T14:15:07.821Z,97314.00
2023-04-11T14:17:36.309Z,97300.00
2023-04-11T14:20:08.758Z,97297.00
2023-04-11T14:22:37.042Z,97296.00
2023-04-11T14:25:06.519Z,97311.00
2023-04-11T14:27:34.752Z,97312.00
2023-04-11T14:30:03.122Z,97325.00
2023-04-11T14:32:31.428Z,97322.00
2023-04-11T14:35:01.546Z,97317.00
2023-04-11T14:37:32.502Z,97328.00
2023-04-11T14:40:00.724Z,97347.00
2023-04-11T14:42:28.995Z,97332.00
2023-04-11T14:44:57.419Z,97336.00
2023-04-11T14:47:25.636Z,97338.00
2023-04-11T14:49:53.848Z,97330.00
2023-04-11T14:52:22.045Z,97319.00
2023-04-11T14:54:51.875Z,97316.00
2023-04-11T14:57:20.076Z,97318.00
2023-04-11T14:59:48.540Z,97306.00
2023-04-11T15:02:17.012Z,97306.00
2023-04-11T15:04:45.781Z,97313.00
2023-04-11T15:07:14.304Z,97315.00
2023-04-11T15:09:43.117Z,97311.00
2023-04-11T15:12:12.676Z,97308.00
2023-04-11T15:14:40.816Z,97310.00
2023-04-11T15:17:09.014Z,97315.00
2023-04-11T15:19:37.194Z,97295.00
2023-04-11T15:22:05.672Z,97304.00
2023-04-11T15:24:33.943Z,97293.00
2023-04-11T15:27:02.156Z,97311.00
2023-04-11T15:29:31.746Z,97310.00
2023-04-11T15:32:04.172Z,97299.00
2023-04-11T15:34:32.337Z,97288.00
2023-04-11T15:37:00.700Z,97274.00
2023-04-11T15:39:28.927Z,97286.00
2023-04-11T15:41:57.362Z,97274.00
2023-04-11T15:44:25.699Z,97269.00
2023-04-11T15:46:55.351Z,97275.00
2023-04-11T15:49:23.555Z,97281.00
2023-04-11T15:51:51.723Z,97275.00
2023-04-11T15:54:19.993Z,97276.00
2023-04-11T15:56:48.585Z,97278.00
2023-04-11T15:59:17.081Z,97269.00
2023-04-11T16:01:47.057Z,97280.00
2023-04-11T16:04:19.675Z,97286.00
2023-04-11T16:06:48.005Z,97286.00
2023-04-11T16:09:16.238Z,97281.00
2023-04-11T16:11:44.497Z,97287.00
2023-04-11T16:14:12.802Z,97290.00
2023-04-11T16:16:41.110Z,97288.00
2023-04-11T16:19:09.308Z,97285.00
2023-04-11T16:21:39.391Z,97284.00
2023-04-11T16:24:07.917Z,97289.00
2023-04-11T16:26:37.323Z,97293.00
2023-04-11T16:29:05.741Z,97291.00
2023-04-11T16:31:34.120Z,97293.00
2023-04-11T16:34:03.722Z,97296.00
2023-04-11T16:36:34.901Z,97303.00
2023-04-11T16:39:04.858Z,97292.00
2023-04-11T16:41:36.403Z,97285.00
2023-04-11T16:44:05.802Z,97286.00
2023-04-11T16:46:34.224Z,97292.00
2023-04-11T16:49:02.484Z,97289.00
2023-04-11T16:51:30.721Z,97293.00
2023-04-11T16:53:59.061Z,97291.00
2023-04-11T16:56:29.225Z,97290.00
2023-04-11T16:58:57.652Z,97280.00
2023-04-11T17:01:26.087Z,97303.00
2023-04-11T17:03:54.677Z,97295.00
2023-04-11T17:06:23.203Z,97280.00
2023-04-11T17:08:51.521Z,97293.00
2023-04-11T17:11:20.373Z,97298.00
2023-04-11T17:13:49.905Z,97289.00
2023-04-11T17:16:18.510Z,97281.00
2023-04-11T17:18:47.044Z,97289.00
2023-04-11T17:21:16.664Z,97294.00
2023-04-11T17:23:45.037Z,97287.00
2023-04-11T17:26:13.823Z,97297.00
2023-04-11T17:28:42.378Z,97302.00
2023-04-11T17:31:17.543Z,97291.00
2023-04-11T17:33:46.794Z,97286.00
2023-04-11T17:36:15.431Z,97290.00
2023-04-11T17:38:43.790Z,97293.00
2023-04-11T17:41:15.123Z,97299.00
2023-04-11T17:43:44.206Z,97296.00
2023-04-11T17:46:13.919Z,97287.00
2023-04-11T17:48:42.315Z,97288.00
2023-04-11T17:51:10.595Z,97297.00
2023-04-11T17:53:38.918Z,97293.00
2023-04-11T17:56:08.207Z,97282.00
2023-04-11T17:58:37.053Z,97292.00
2023-04-11T18:01:10.999Z,97292.00
2023-04-11T18:03:41.064Z,97294.00
2023-04-11T18:06:10.900Z,97302.00
2023-04-11T18:08:50.470Z,97303.00
2023-04-11T18:11:20.884Z,97301.00
2023-04-11T18:13:53.752Z,97306.00
2023-04-11T18:16:22.902Z,97302.00
2023-04-11T18:18:52.538Z,97304.00
2023-04-11T18:21:21.419Z,97308.00
2023-04-11T18:23:49.816Z,97301.00
2023-04-11T18:26:18.156Z,97304.00
2023-04-11T18:28:46.359Z,97314.00
2023-04-11T18:31:15.563Z,97317.00
2023-04-11T18:33:46.214Z,97325.00
2023-04-11T18:36:16.560Z,97320.00
2023-04-11T18:38:44.955Z,97325.00
2023-04-11T18:41:13.224Z,97319.00
2023-04-11T18:43:41.745Z,97329.00
2023-04-11T18:46:10.065Z,97339.00
2023-04-11T18:48:38.398Z,97323.00
2023-04-11T18:51:07.275Z,97327.00
2023-04-11T18:53:37.020Z,97328.00
2023-04-11T18:56:06.111Z,97326.00
2023-04-11T18:58:38.466Z,97331.00
2023-04-11T19:01:15.692Z,97342.00
2023-04-11T19:03:46.320Z,97340.00
2023-04-11T19:06:14.962Z,97340.00
2023-04-11T19:08:44.571Z,97328.00
2023-04-11T19:11:12.824Z,97329.00
2023-04-11T19:13:41.222Z,97334.00
2023-04-11T19:16:09.542Z,97329.00
2023-04-11T19:18:37.832Z,97342.00
2023-04-11T19:21:06.597Z,97344.00
2023-04-11T19:23:34.852Z,97336.00
2023-04-11T19:26:04.930Z,97338.00
2023-04-11T19:28:33.161Z,97344.00
2023-04-11T19:31:01.425Z,97340.00
2023-04-11T19:33:29.783Z,97338.00
2023-04-11T19:35:58.136Z,97342.00
2023-04-11T19:38:26.506Z,97341.00
2023-04-11T19:40:55.681Z,97348.00
2023-04-11T19:43:25.357Z,97342.00
2023-04-11T19:45:53.650Z,97333.00
2023-04-11T19:48:21.977Z,97338.00
2023-04-11T19:50:50.937Z,97342.00
2023-04-11T19:53:19.160Z,97324.00
2023-04-11T19:55:52.418Z,97324.00
2023-04-11T19:58:21.305Z,97313.00
2023-04-11T20:00:53.017Z,97323.00
2023-04-11T20:03:21.923Z,97315.00
2023-04-11T20:05:50.732Z,97318.00
2023-04-11T20:08:21.100Z,97314.00
2023-04-11T20:10:49.545Z,97312.00
2023-04-11T20:13:17.937Z,97306.00
2023-04-11T20:15:46.225Z,97298.00
2023-04-11T20:18:16.886Z,97295.00
2023-04-11T20:20:45.428Z,97298.00
2023-04-11T20:23:15.891Z,97302.00
2023-04-11T20:25:44.604Z,97300.00
2023-04-11T20:28:12.923Z,97299.00
2023-04-11T20:30:41.913Z,97290.00
2023-04-11T20:33:10.269Z,97291.00
2023-04-11T20:35:40.136Z,97268.00
2023-04-11T20:38:08.516Z,97264.00
2023-04-11T20:40:37.046Z,97280.00
2023-04-11T20:43:06.551Z,97258.00
2023-04-11T20:45:36.175Z,97276.00
2023-04-11T20:48:06.256Z,97276.00
2023-04-11T20:50:34.565Z,97284.00
2023-04-11T20:53:04.260Z,97263.00
2023-04-11T20:55:33.447Z,97270.00
2023-04-11T20:58:01.898Z,97266.00
2023-04-11T21:00:30.261Z,97281.00
2023-04-11T21:02:58.714Z,97276.00
2023-04-11T21:05:28.084Z,97277.00
2023-04-11T21:07:58.224Z,97293.00
2023-04-11T21:10:27.803Z,97273.00
2023-04-11T21:12:56.123Z,97278.00
2023-04-11T21:15:25.423Z,97277.00
2023-04-11T21:17:53.650Z,97272.00
2023-04-11T21:20:22.650Z,97272.00
2023-04-11T21:22:53.808Z,97259.00
2023-04-11T21:25:22.773Z,97248.00
2023-04-11T21:27:52.428Z,97254.00
2023-04-11T21:30:20.849Z,97252.00
2023-04-11T21:32:49.113Z,97247.00
2023-04-11T21:35:17.338Z,97240.00
2023-04-11T21:37:47.721Z,97253.00
2023-04-11T21:40:17.461Z,97253.00
2023-04-11T21:42:45.839Z,97252.00
2023-04-11T21:45:16.565Z,97237.00
2023-04-11T21:47:44.800Z,97236.00
2023-04-11T21:50:13.488Z,97237.00
2023-04-11T21:52:41.669Z,97233.00
2023-04-11T21:55:11.443Z,97234.00
2023-04-11T21:57:39.963Z,97223.00
2023-04-11T22:00:10.958Z,97222.00
2023-04-11T22:02:43.600Z,97214.00
2023-04-11T22:05:12.700Z,97226.00
2023-04-11T22:07:50.074Z,97223.00
2023-04-11T22:10:22.457Z,97202.00
2023-04-11T22:12:53.636Z,97220.00
2023-04-11T22:15:22.034Z,97202.00
2023-04-11T22:17:54.298Z,97205.00
2023-04-11T22:20:22.740Z,97204.00
2023-04-11T22:22:50.993Z,97186.00
2023-04-11T22:25:22.266Z,97198.00
2023-04-11T22:27:54.111Z,97189.00
2023-04-11T22:30:23.667Z,97201.00
2023-04-11T22:32:54.405Z,97192.00
2023-04-11T22:35:23.500Z,97185.00
2023-04-11T22:37:53.569Z,97183.00
2023-04-11T22:40:23.102Z,97184.00
2023-04-11T22:42:52.170Z,97196.00
2023-04-11T22:45:22.423Z,97176.00
2023-04-11T22:47:55.498Z,97177.00
2023-04-11T22:50:24.353Z,97160.00
2023-04-11T22:52:54.614Z,97170.00
2023-04-11T22:55:24.696Z,97167.00
2023-04-11T22:57:52.996Z,97170.00
2023-04-11T23:00:21.882Z,97168.00
2023-04-11T23:02:50.890Z,97160.00
2023-04-11T23:05:20.785Z,97149.00
2023-04-11T23:07:49.197Z,97138.00
2023-04-11T23:10:17.502Z,97151.00
2023-04-11T23:12:45.693Z,97142.00
2023-04-11T23:15:14.080Z,97142.00
2023-04-11T23:17:42.341Z,97138.00
2023-04-11T23:20:12.753Z,97140.00
2023-04-11T23:22:44.137Z,97128.00
2023-04-11T23:25:13.937Z,97139.00
2023-04-11T23:27:43.886Z,97125.00
2023-04-11T23:30:14.948Z,97122.00
2023-04-11T23:32:43.296Z,97130.00
2023-04-11T23:35:11.723Z,97123.00
2023-04-11T23:37:40.853Z,97120.00
2023-04-11T23:40:13.956Z,97114.00
2023-04-11T23:42:42.766Z,97112.00
2023-04-11T23:45:14.230Z,97111.00
2023-04-11T23:47:42.560Z,97103.00
2023-04-11T23:50:12.164Z,97106.00
2023-04-11T23:52:40.841Z,97101.00
2023-04-11T23:55:12.227Z,97094.00
2023-04-11T23:57:40.764Z,97077.00
